createdAt,value
2023-04-20T00:01:54.053Z,102008.72
2023-04-20T00:04:21.408Z,102009.50
2023-04-20T00:06:49.457Z,102013.81
2023-04-20T00:09:16.973Z,102018.00
2023-04-20T00:11:44.086Z,102017.97
2023-04-20T00:14:11.087Z,102006.50
2023-04-20T00:16:38.148Z,102010.81
2023-04-20T00:19:05.312Z,102008.94
2023-04-20T00:21:32.375Z,102001.81
2023-04-20T00:23:59.610Z,102000.88
2023-04-20T00:26:26.617Z,101996.44
2023-04-20T00:28:53.701Z,101992.84
2023-04-20T00:31:21.248Z,101986.69
2023-04-20T00:33:48.797Z,101980.50
2023-04-20T00:36:15.929Z,101979.50
2023-04-20T00:38:42.967Z,101978.53
2023-04-20T00:41:10.221Z,101971.41
2023-04-20T00:43:37.731Z,101963.44
2023-04-20T00:46:04.871Z,101972.09
2023-04-20T00:48:31.924Z,101961.47
2023-04-20T00:50:59.100Z,101963.13
2023-04-20T00:53:26.301Z,101963.06
2023-04-20T00:55:53.593Z,101950.81
2023-04-20T00:58:21.455Z,101955.94
2023-04-20T01:00:48.458Z,101940.94
2023-04-20T01:03:15.738Z,101945.28
2023-04-20T01:05:42.956Z,101940.00
2023-04-20T01:08:09.970Z,101936.44
2023-04-20T01:10:37.064Z,101934.56
2023-04-20T01:13:04.130Z,101930.06
2023-04-20T01:15:31.352Z,101925.59
2023-04-20T01:17:58.376Z,101913.31
2023-04-20T01:20:25.483Z,101909.66
2023-04-20T01:22:56.103Z,101920.97
2023-04-20T01:25:23.474Z,101914.78
2023-04-20T01:27:50.482Z,101901.56
2023-04-20T01:30:17.550Z,101905.88
2023-04-20T01:32:45.124Z,101897.09
2023-04-20T01:35:12.951Z,101904.91
2023-04-20T01:37:40.911Z,101894.44
2023-04-20T01:40:13.357Z,101896.13
2023-04-20T01:42:40.924Z,101891.69
2023-04-20T01:45:09.055Z,101887.31
2023-04-20T01:47:37.196Z,101879.47
2023-04-20T01:50:04.805Z,101876.84
2023-04-20T01:52:31.784Z,101874.22
2023-04-20T01:54:58.974Z,101867.31
2023-04-20T01:57:26.034Z,101861.19
2023-04-20T01:59:53.165Z,101846.41
2023-04-20T02:02:20.343Z,101844.72
2023-04-20T02:04:47.569Z,101846.44
2023-04-20T02:07:14.552Z,101846.47
2023-04-20T02:09:41.642Z,101842.94
2023-04-20T02:12:08.784Z,101838.50
2023-04-20T02:14:37.054Z,101838.41
2023-04-20T02:17:04.353Z,101836.59
2023-04-20T02:19:31.555Z,101825.19
2023-04-20T02:21:58.621Z,101825.97
2023-04-20T02:24:25.749Z,101828.66
2023-04-20T02:26:52.760Z,101818.06
2023-04-20T02:29:22.488Z,101825.94
2023-04-20T02:31:49.470Z,101819.78
2023-04-20T02:34:16.870Z,101823.19
2023-04-20T02:36:44.056Z,101813.50
2023-04-20T02:39:11.192Z,101812.53
2023-04-20T02:41:38.179Z,101811.59
2023-04-20T02:44:05.516Z,101818.50
2023-04-20T02:46:32.683Z,101814.97
2023-04-20T02:48:59.796Z,101810.56
2023-04-20T02:51:27.054Z,101801.75
2023-04-20T02:53:54.185Z,101803.53
2023-04-20T02:56:21.793Z,101798.28
2023-04-20T03:01:16.652Z,101793.91
2023-04-20T03:03:43.806Z,101800.81
2023-04-20T03:06:11.027Z,101795.53
2023-04-20T03:08:38.001Z,101797.22
2023-04-20T03:11:05.004Z,101785.00
2023-04-20T03:13:32.085Z,101776.31
2023-04-20T03:15:59.088Z,101774.59
2023-04-20T03:18:26.130Z,101766.72
2023-04-20T03:20:53.230Z,101759.81
2023-04-20T03:23:23.185Z,101758.00
2023-04-20T03:25:51.008Z,101757.09
2023-04-20T03:28:18.044Z,101757.09
2023-04-20T03:30:44.982Z,101750.09
2023-04-20T03:33:12.087Z,101760.56
2023-04-20T03:35:39.560Z,101757.94
2023-04-20T03:38:06.718Z,101746.59
2023-04-20T03:40:33.769Z,101744.88
2023-04-20T03:43:00.878Z,101739.72
2023-04-20T03:45:28.094Z,101743.28
2023-04-20T03:47:55.270Z,101734.66
2023-04-20T03:50:22.374Z,101718.97
2023-04-20T03:52:49.412Z,101730.44
2023-04-20T03:55:16.468Z,101733.13
2023-04-20T03:57:43.419Z,101729.78
2023-04-20T04:00:12.556Z,101720.28
2023-04-20T04:02:39.875Z,101719.56
2023-04-20T04:05:08.040Z,101718.75
2023-04-20T04:07:35.061Z,101721.44
2023-04-20T04:10:04.937Z,101721.53
2023-04-20T04:12:32.087Z,101722.44
2023-04-20T04:14:59.220Z,101715.44
2023-04-20T04:17:26.527Z,101708.53
2023-04-20T04:19:53.711Z,101705.06
2023-04-20T04:22:20.822Z,101706.06
2023-04-20T04:24:48.850Z,101715.72
2023-04-20T04:27:16.264Z,101706.13
2023-04-20T04:29:44.753Z,101700.91
2023-04-20T04:32:12.518Z,101695.72
2023-04-20T04:34:40.378Z,101688.81
2023-04-20T04:37:10.327Z,101683.59
2023-04-20T04:39:37.443Z,101678.41
2023-04-20T04:42:05.360Z,101679.34
2023-04-20T04:44:33.337Z,101682.09
2023-04-20T04:47:02.851Z,101670.78
2023-04-20T04:49:30.156Z,101675.22
2023-04-20T04:51:57.190Z,101680.50
2023-04-20T04:54:24.282Z,101679.66
2023-04-20T04:56:51.721Z,101681.47
2023-04-20T04:59:18.916Z,101679.75
2023-04-20T05:01:46.102Z,101691.94
2023-04-20T05:04:13.374Z,101677.94
2023-04-20T05:06:40.562Z,101672.66
2023-04-20T05:09:07.688Z,101670.75
2023-04-20T05:11:34.829Z,101676.59
2023-04-20T05:14:03.548Z,101671.19
2023-04-20T05:16:30.771Z,101676.34
2023-04-20T05:18:58.066Z,101680.66
2023-04-20T05:21:25.119Z,101669.25
2023-04-20T05:23:52.108Z,101665.72
2023-04-20T05:26:19.198Z,101667.53
2023-04-20T05:28:46.292Z,101678.22
2023-04-20T05:31:13.419Z,101679.00
2023-04-20T05:33:40.851Z,101677.31
2023-04-20T05:36:11.275Z,101672.88
2023-04-20T05:38:38.879Z,101675.50
2023-04-20T05:41:06.588Z,101672.91
2023-04-20T05:43:33.786Z,101666.88
2023-04-20T05:46:00.934Z,101673.09
2023-04-20T05:48:30.021Z,101660.03
2023-04-20T05:50:58.347Z,101658.34
2023-04-20T05:53:26.234Z,101655.81
2023-04-20T05:55:53.489Z,101656.84
2023-04-20T05:58:20.646Z,101666.63
2023-04-20T06:00:47.813Z,101666.00
2023-04-20T06:03:15.124Z,101655.72
2023-04-20T06:05:42.390Z,101655.91
2023-04-20T06:08:09.446Z,101652.53
2023-04-20T06:10:36.493Z,101651.75
2023-04-20T06:13:03.780Z,101657.94
2023-04-20T06:15:30.980Z,101653.59
2023-04-20T06:17:58.165Z,101658.09
2023-04-20T06:20:25.360Z,101645.09
2023-04-20T06:22:52.400Z,101648.75
2023-04-20T06:25:19.832Z,101655.88
2023-04-20T06:27:47.644Z,101651.53
2023-04-20T06:30:16.261Z,101639.34
2023-04-20T06:32:43.361Z,101647.19
2023-04-20T06:35:10.721Z,101641.09
2023-04-20T06:37:38.722Z,101633.31
2023-04-20T06:40:08.453Z,101641.34
2023-04-20T06:42:36.565Z,101637.94
2023-04-20T06:45:05.811Z,101625.84
2023-04-20T06:47:33.893Z,101622.50
2023-04-20T06:50:03.126Z,101620.00
2023-04-20T06:52:31.414Z,101615.84
2023-04-20T06:55:02.241Z,101625.59
2023-04-20T06:57:29.237Z,101625.59
2023-04-20T06:59:56.250Z,101631.56
2023-04-20T07:02:23.766Z,101636.78
2023-04-20T07:04:51.209Z,101620.16
2023-04-20T07:07:18.320Z,101621.06
2023-04-20T07:09:45.267Z,101620.22
2023-04-20T07:12:15.720Z,101615.94
2023-04-20T07:14:43.405Z,101616.81
2023-04-20T07:17:10.585Z,101623.81
2023-04-20T07:19:37.655Z,101626.50
2023-04-20T07:22:04.716Z,101619.50
2023-04-20T07:24:31.932Z,101623.97
2023-04-20T07:26:59.159Z,101624.00
2023-04-20T07:29:26.306Z,101614.38
2023-04-20T07:31:53.477Z,101624.09
2023-04-20T07:34:20.785Z,101624.19
2023-04-20T07:36:48.008Z,101619.06
2023-04-20T07:39:16.256Z,101620.16
2023-04-20T07:41:43.897Z,101625.75
2023-04-20T07:44:13.383Z,101617.16
2023-04-20T07:46:40.770Z,101616.44
2023-04-20T07:49:07.750Z,101616.66
2023-04-20T07:51:35.350Z,101614.25
2023-04-20T07:54:02.477Z,101620.75
2023-04-20T07:56:30.364Z,101628.97
2023-04-20T07:58:57.401Z,101621.28
2023-04-20T08:01:25.808Z,101633.75
2023-04-20T08:03:55.356Z,101628.69
2023-04-20T08:06:22.763Z,101625.19
2023-04-20T08:08:49.733Z,101613.81
2023-04-20T08:11:16.740Z,101613.84
2023-04-20T08:13:43.707Z,101615.88
2023-04-20T08:16:10.937Z,101609.94
2023-04-20T08:18:37.920Z,101612.72
2023-04-20T08:21:05.052Z,101617.19
2023-04-20T08:23:32.073Z,101612.78
2023-04-20T08:25:59.201Z,101609.22
2023-04-20T08:28:33.286Z,101610.00
2023-04-20T08:31:01.674Z,101603.84
2023-04-20T08:33:28.764Z,101604.72
2023-04-20T08:35:55.844Z,101602.16
2023-04-20T08:38:33.699Z,101613.69
2023-04-20T08:41:02.131Z,101611.13
2023-04-20T08:43:29.723Z,101594.47
2023-04-20T08:46:04.242Z,101595.47
2023-04-20T08:48:36.902Z,101600.81
2023-04-20T08:51:05.176Z,101594.66
2023-04-20T08:53:33.132Z,101599.09
2023-04-20T08:56:00.523Z,101593.81
2023-04-20T08:58:32.628Z,101591.16
2023-04-20T09:01:03.112Z,101586.75
2023-04-20T09:03:48.220Z,101591.16
2023-04-20T09:06:18.307Z,101592.03
2023-04-20T09:08:46.745Z,101584.97
2023-04-20T09:11:29.808Z,101591.09
2023-04-20T09:14:06.626Z,101584.94
2023-04-20T09:16:39.575Z,101580.47
2023-04-20T09:19:09.220Z,101586.53
2023-04-20T09:21:36.914Z,101587.44
2023-04-20T09:24:09.340Z,101584.84
2023-04-20T09:26:36.958Z,101595.47
2023-04-20T09:29:04.908Z,101582.28
2023-04-20T09:31:31.983Z,101586.69
2023-04-20T09:34:03.871Z,101586.63
2023-04-20T09:36:54.500Z,101585.75
2023-04-20T09:39:24.143Z,101583.16
2023-04-20T09:41:52.719Z,101576.19
2023-04-20T09:44:20.314Z,101577.03
2023-04-20T09:46:47.590Z,101569.69
2023-04-20T09:49:15.258Z,101563.47
2023-04-20T09:51:47.235Z,101566.28
2023-04-20T09:54:16.036Z,101566.34
2023-04-20T09:56:43.684Z,101550.50
2023-04-20T09:59:11.886Z,101547.88
2023-04-20T10:01:39.206Z,101553.06
2023-04-20T10:04:11.345Z,101551.22
2023-04-20T10:06:39.104Z,101550.25
2023-04-20T10:09:08.647Z,101547.53
2023-04-20T10:11:52.312Z,101553.66
2023-04-20T10:14:26.136Z,101537.94
2023-04-20T10:17:03.196Z,101531.94
2023-04-20T10:19:43.969Z,101530.13
2023-04-20T10:22:25.234Z,101533.72
2023-04-20T10:24:52.257Z,101524.13
2023-04-20T10:27:22.721Z,101530.34
2023-04-20T10:29:49.868Z,101534.75
2023-04-20T10:32:28.433Z,101519.78
2023-04-20T10:35:08.931Z,101533.88
2023-04-20T10:37:51.606Z,101529.41
2023-04-20T10:40:29.345Z,101524.03
2023-04-20T10:42:56.426Z,101525.72
2023-04-20T10:45:38.694Z,101522.09
2023-04-20T10:48:10.605Z,101522.06
2023-04-20T10:50:38.058Z,101515.91
2023-04-20T10:53:06.246Z,101520.31
2023-04-20T10:55:34.372Z,101521.34
2023-04-20T10:58:01.620Z,101515.34
2023-04-20T11:00:30.910Z,101520.66
2023-04-20T11:02:58.178Z,101517.13
2023-04-20T11:05:27.879Z,101505.69
2023-04-20T11:08:01.109Z,101507.44
2023-04-20T11:10:40.547Z,101506.56
2023-04-20T11:13:18.933Z,101505.72
2023-04-20T11:15:46.031Z,101498.63
2023-04-20T11:18:13.132Z,101506.56
2023-04-20T11:20:56.966Z,101491.53
2023-04-20T11:23:27.515Z,101490.66
2023-04-20T11:25:56.653Z,101494.25
2023-04-20T11:28:24.355Z,101484.53
2023-04-20T11:30:52.720Z,101479.19
2023-04-20T11:33:31.400Z,101481.75
2023-04-20T11:35:59.413Z,101482.63
2023-04-20T11:38:34.716Z,101478.16
2023-04-20T11:41:05.006Z,101470.19
2023-04-20T11:43:32.695Z,101484.19
2023-04-20T11:46:02.988Z,101470.94
2023-04-20T11:48:33.219Z,101471.88
2023-04-20T11:51:00.248Z,101477.38
2023-04-20T11:53:27.307Z,101472.22
2023-04-20T11:55:54.441Z,101464.25
2023-04-20T11:58:21.594Z,101464.19
2023-04-20T12:00:48.754Z,101457.16
2023-04-20T12:03:16.377Z,101462.53
2023-04-20T12:05:43.626Z,101462.53
2023-04-20T12:08:10.661Z,101481.81
2023-04-20T12:10:37.743Z,101493.09
2023-04-20T12:13:04.730Z,101480.59
2023-04-20T12:15:32.116Z,101467.44
2023-04-20T12:17:59.281Z,101465.81
2023-04-20T12:20:26.509Z,101455.38
2023-04-20T12:22:53.650Z,101451.88
2023-04-20T12:25:20.705Z,101455.41
2023-04-20T12:27:49.485Z,101446.59
2023-04-20T12:30:17.284Z,101437.81
2023-04-20T12:32:44.448Z,101446.63
2023-04-20T12:35:11.659Z,101437.00
2023-04-20T12:37:39.026Z,101434.34
2023-04-20T12:40:07.525Z,101429.94
2023-04-20T12:42:34.562Z,101431.66
2023-04-20T12:45:01.845Z,101433.41
2023-04-20T12:47:29.011Z,101434.25
2023-04-20T12:49:56.284Z,101428.06
2023-04-20T12:52:23.349Z,101431.53
2023-04-20T12:54:50.605Z,101425.31
2023-04-20T12:57:17.747Z,101432.44
2023-04-20T12:59:44.805Z,101425.50
2023-04-20T13:02:12.111Z,101423.81
2023-04-20T13:04:39.516Z,101427.22
2023-04-20T13:07:07.116Z,101447.34
2023-04-20T13:09:34.259Z,101434.09
2023-04-20T13:12:01.391Z,101432.34
2023-04-20T13:14:28.517Z,101425.44
2023-04-20T13:16:55.764Z,101422.84
2023-04-20T13:19:23.184Z,101419.31
2023-04-20T13:21:50.543Z,101420.25
2023-04-20T13:24:17.793Z,101413.22
2023-04-20T13:26:45.734Z,101415.78
2023-04-20T13:29:12.801Z,101406.84
2023-04-20T13:31:40.741Z,101413.75
2023-04-20T13:34:07.913Z,101406.72
2023-04-20T13:36:35.077Z,101409.56
2023-04-20T13:39:02.413Z,101407.06
2023-04-20T13:41:29.540Z,101415.78
2023-04-20T13:44:00.200Z,101411.31
2023-04-20T13:46:27.880Z,101409.41
2023-04-20T13:48:57.739Z,101415.47
2023-04-20T13:51:24.762Z,101410.13
2023-04-20T13:53:51.820Z,101406.56
2023-04-20T13:56:19.018Z,101403.00
2023-04-20T13:58:46.100Z,101400.41
2023-04-20T14:01:17.697Z,101392.50
2023-04-20T14:03:45.024Z,101391.75
2023-04-20T14:06:12.419Z,101404.22
2023-04-20T14:08:39.507Z,101403.47
2023-04-20T14:11:06.796Z,101398.22
2023-04-20T14:13:34.105Z,101394.72
2023-04-20T14:16:01.409Z,101385.00
2023-04-20T14:18:28.632Z,101382.19
2023-04-20T14:20:55.720Z,101388.06
2023-04-20T14:23:22.739Z,101380.53
2023-04-20T14:25:49.978Z,101374.84
2023-04-20T14:28:17.793Z,101373.78
2023-04-20T14:30:46.384Z,101371.31
2023-04-20T14:33:13.695Z,101372.50
2023-04-20T14:35:40.818Z,101378.97
2023-04-20T14:38:07.842Z,101377.50
2023-04-20T14:40:34.983Z,101371.50
2023-04-20T14:43:02.134Z,101376.00
2023-04-20T14:45:29.480Z,101378.69
2023-04-20T14:47:57.344Z,101371.66
2023-04-20T14:50:31.831Z,101378.75
2023-04-20T14:52:58.957Z,101378.78
2023-04-20T14:55:26.283Z,101375.31
2023-04-20T14:57:57.035Z,101377.97
2023-04-20T15:00:27.846Z,101372.69
2023-04-20T15:02:59.688Z,101379.75
2023-04-20T15:05:28.614Z,101376.25
2023-04-20T15:07:57.765Z,101370.91
2023-04-20T15:10:25.049Z,101369.03
2023-04-20T15:12:52.226Z,101365.41
2023-04-20T15:15:19.531Z,101367.97
2023-04-20T15:17:49.671Z,101366.19
2023-04-20T15:20:16.946Z,101364.38
2023-04-20T15:22:44.461Z,101365.22
2023-04-20T15:25:11.680Z,101360.75
2023-04-20T15:27:39.094Z,101360.66
2023-04-20T15:30:07.381Z,101360.53
2023-04-20T15:32:34.654Z,101356.03
2023-04-20T15:35:02.151Z,101353.44
2023-04-20T15:37:29.132Z,101353.34
2023-04-20T15:39:56.191Z,101350.59
2023-04-20T15:42:23.209Z,101350.13
2023-04-20T15:44:50.319Z,101353.72
2023-04-20T15:47:17.350Z,101344.94
2023-04-20T15:49:44.551Z,101341.03
2023-04-20T15:52:11.702Z,101349.00
2023-04-20T15:54:38.976Z,101354.13
2023-04-20T15:57:06.213Z,101356.56
2023-04-20T15:59:33.292Z,101361.56
2023-04-20T16:02:00.369Z,101351.22
2023-04-20T16:04:27.579Z,101353.69
2023-04-20T16:06:55.233Z,101348.63
2023-04-20T16:09:23.804Z,101347.06
2023-04-20T16:11:51.275Z,101349.91
2023-04-20T16:14:18.732Z,101347.00
2023-04-20T16:16:45.985Z,101342.13
2023-04-20T16:19:16.114Z,101349.78
2023-04-20T16:21:43.092Z,101353.06
2023-04-20T16:24:10.246Z,101360.69
2023-04-20T16:26:39.518Z,101355.75
2023-04-20T16:29:08.025Z,101371.03
2023-04-20T16:31:36.999Z,101368.56
2023-04-20T16:34:04.704Z,101359.84
2023-04-20T16:36:32.120Z,101348.88
2023-04-20T16:39:01.870Z,101340.16
2023-04-20T16:41:28.996Z,101345.13
2023-04-20T16:43:56.125Z,101345.34
2023-04-20T16:46:23.386Z,101350.13
2023-04-20T16:48:50.973Z,101349.53
2023-04-20T16:51:18.086Z,101361.69
2023-04-20T16:53:45.493Z,101349.16
2023-04-20T16:56:12.786Z,101365.53
2023-04-20T16:58:39.892Z,101356.63
2023-04-20T17:01:08.091Z,101347.41
2023-04-20T17:03:35.770Z,101353.00
2023-04-20T17:06:07.497Z,101350.56
2023-04-20T17:08:34.747Z,101348.13
2023-04-20T17:11:02.016Z,101351.81
2023-04-20T17:13:29.473Z,101353.72
2023-04-20T17:15:56.617Z,101352.91
2023-04-20T17:18:23.718Z,101350.34
2023-04-20T17:20:51.057Z,101351.28
2023-04-20T17:23:19.227Z,101350.41
2023-04-20T17:25:51.713Z,101345.88
2023-04-20T17:28:19.034Z,101347.59
2023-04-20T17:30:46.574Z,101355.38
2023-04-20T17:33:13.719Z,101351.50
2023-04-20T17:35:40.994Z,101359.78
2023-04-20T17:38:16.150Z,101367.97
2023-04-20T17:40:43.501Z,101366.53
2023-04-20T17:43:10.559Z,101367.72
2023-04-20T17:45:52.721Z,101372.44
2023-04-20T17:48:19.907Z,101373.88
2023-04-20T17:50:51.356Z,101376.59
2023-04-20T17:53:18.891Z,101370.72
2023-04-20T17:55:46.158Z,101386.69
2023-04-20T17:58:13.345Z,101390.59
2023-04-20T18:00:40.616Z,101393.09
2023-04-20T18:03:07.848Z,101387.72
2023-04-20T18:05:35.049Z,101383.91
2023-04-20T18:08:02.158Z,101393.97
2023-04-20T18:10:29.261Z,101391.66
2023-04-20T18:12:56.460Z,101388.31
2023-04-20T18:15:23.562Z,101392.81
2023-04-20T18:17:50.800Z,101389.34
2023-04-20T18:20:19.265Z,101393.81
2023-04-20T18:22:48.492Z,101386.81
2023-04-20T18:25:16.468Z,101387.69
2023-04-20T18:27:43.467Z,101387.72
2023-04-20T18:30:11.266Z,101385.00
2023-04-20T18:32:38.570Z,101385.88
2023-04-20T18:35:07.137Z,101386.75
2023-04-20T18:37:34.275Z,101385.81
2023-04-20T18:40:01.487Z,101399.00
2023-04-20T18:42:28.626Z,101392.81
2023-04-20T18:44:56.082Z,101401.53
2023-04-20T18:47:25.488Z,101392.72
2023-04-20T18:49:53.336Z,101394.44
2023-04-20T18:52:20.702Z,101397.03
2023-04-20T18:54:48.656Z,101390.84
2023-04-20T18:57:15.723Z,101392.59
2023-04-20T18:59:42.755Z,101391.69
2023-04-20T19:02:10.244Z,101401.28
2023-04-20T19:04:37.368Z,101395.94
2023-04-20T19:07:04.561Z,101394.13
2023-04-20T19:09:31.674Z,101393.25
2023-04-20T19:11:58.765Z,101397.59
2023-04-20T19:14:26.109Z,101389.63
2023-04-20T19:16:53.324Z,101392.25
2023-04-20T19:19:20.787Z,101388.69
2023-04-20T19:21:48.465Z,101392.19
2023-04-20T19:24:16.194Z,101393.00
2023-04-20T19:26:44.132Z,101387.72
2023-04-20T19:29:12.426Z,101380.66
2023-04-20T19:31:40.378Z,101386.78
2023-04-20T19:34:08.458Z,101384.09
2023-04-20T19:36:35.844Z,101385.81
2023-04-20T19:39:09.145Z,101393.69
2023-04-20T19:41:36.714Z,101384.88
2023-04-20T19:44:06.764Z,101398.88
2023-04-20T19:46:34.058Z,101395.34
2023-04-20T19:49:01.452Z,101382.16
2023-04-20T19:51:28.695Z,101383.91
2023-04-20T19:53:59.529Z,101388.25
2023-04-20T19:56:27.176Z,101390.00
2023-04-20T19:58:54.279Z,101388.22
2023-04-20T20:01:21.361Z,101394.31
2023-04-20T20:03:48.713Z,101396.91
2023-04-20T20:06:15.839Z,101394.28
2023-04-20T20:08:42.799Z,101395.09
2023-04-20T20:11:09.980Z,101391.59
2023-04-20T20:13:37.002Z,101380.16
2023-04-20T20:16:04.314Z,101377.53
2023-04-20T20:18:31.309Z,101387.13
2023-04-20T20:20:58.366Z,101393.25
2023-04-20T20:23:25.413Z,101374.84
2023-04-20T20:25:52.405Z,101384.47
2023-04-20T20:28:19.514Z,101383.59
2023-04-20T20:30:46.674Z,101379.22
2023-04-20T20:33:13.921Z,101374.81
2023-04-20T20:35:41.090Z,101375.69
2023-04-20T20:38:09.013Z,101378.31
2023-04-20T20:40:37.271Z,101384.44
2023-04-20T20:43:04.594Z,101384.47
2023-04-20T20:45:32.375Z,101384.44
2023-04-20T20:48:02.212Z,101380.03
2023-04-20T20:50:29.269Z,101383.53
2023-04-20T20:52:56.358Z,101377.38
2023-04-20T20:55:23.524Z,101383.50
2023-04-20T20:57:50.458Z,101372.94
2023-04-20T21:00:18.455Z,101373.84
2023-04-20T21:02:45.774Z,101372.03
2023-04-20T21:05:13.083Z,101370.25
2023-04-20T21:07:40.786Z,101366.69
2023-04-20T21:10:08.527Z,101362.28
2023-04-20T21:12:35.518Z,101364.03
2023-04-20T21:15:02.568Z,101364.03
2023-04-20T21:17:29.549Z,101362.28
2023-04-20T21:19:56.649Z,101367.56
2023-04-20T21:22:23.789Z,101382.47
2023-04-20T21:24:50.880Z,101381.59
2023-04-20T21:27:17.891Z,101372.00
2023-04-20T21:29:44.952Z,101374.56
2023-04-20T21:32:12.008Z,101380.72
2023-04-20T21:34:39.075Z,101383.34
2023-04-20T21:37:06.132Z,101390.38
2023-04-20T21:39:33.380Z,101383.34
2023-04-20T21:42:01.521Z,101386.84
2023-04-20T21:44:29.030Z,101378.06
2023-04-20T21:46:56.097Z,101371.91
2023-04-20T21:49:23.266Z,101372.81
2023-04-20T21:51:50.241Z,101368.41
2023-04-20T21:54:17.394Z,101382.47
2023-04-20T21:56:44.488Z,101383.31
2023-04-20T21:59:11.485Z,101385.00
2023-04-20T22:01:38.581Z,101390.22
2023-04-20T22:04:05.761Z,101384.88
2023-04-20T22:06:33.122Z,101384.84
2023-04-20T22:09:00.323Z,101391.78
2023-04-20T22:11:27.991Z,101388.13
2023-04-20T22:13:57.199Z,101386.28
2023-04-20T22:16:24.458Z,101391.47
2023-04-20T22:18:51.595Z,101381.75
2023-04-20T22:21:18.604Z,101376.41
2023-04-20T22:23:45.608Z,101386.88
2023-04-20T22:26:12.650Z,101379.78
2023-04-20T22:28:39.603Z,101364.88
2023-04-20T22:31:06.619Z,101368.31
2023-04-20T22:33:33.667Z,101363.91
2023-04-20T22:36:00.713Z,101369.94
2023-04-20T22:38:27.718Z,101364.66
2023-04-20T22:40:54.831Z,101354.16
2023-04-20T22:43:21.815Z,101357.63
2023-04-20T22:45:48.917Z,101351.44
2023-04-20T22:48:15.922Z,101341.78
2023-04-20T22:50:43.415Z,101347.91
2023-04-20T22:53:10.643Z,101339.13
2023-04-20T22:55:37.691Z,101335.56
2023-04-20T22:58:04.789Z,101333.78
2023-04-20T23:00:31.773Z,101329.41
2023-04-20T23:02:59.076Z,101324.16
2023-04-20T23:05:26.608Z,101312.78
2023-04-20T23:07:53.922Z,101306.66
2023-04-20T23:10:21.117Z,101296.13
2023-04-20T23:12:49.614Z,101296.13
2023-04-20T23:15:16.674Z,101291.69
2023-04-20T23:17:43.735Z,101294.31
2023-04-20T23:20:13.667Z,101279.44
2023-04-20T23:22:40.994Z,101270.66
2023-04-20T23:25:09.859Z,101270.66
2023-04-20T23:27:37.028Z,101277.59
2023-04-20T23:30:04.925Z,101272.31
2023-04-20T23:32:31.960Z,101280.19
2023-04-20T23:34:58.981Z,101274.06
2023-04-20T23:37:26.010Z,101266.19
2023-04-20T23:39:53.041Z,101266.19
2023-04-20T23:42:19.964Z,101262.66
2023-04-20T23:44:46.927Z,101269.66
2023-04-20T23:47:15.499Z,101263.53
2023-04-20T23:49:42.559Z,101258.25
2023-04-20T23:52:09.684Z,101259.97
2023-04-20T23:54:36.747Z,101260.81
2023-04-20T23:57:03.824Z,101268.69
2023-04-20T23:59:31.247Z,101279.16
